createdAt,value
2023-02-08T00:00:59.630Z,13.73
2023-02-08T00:03:29.491Z,14.73
2023-02-08T00:05:57.149Z,13.77
2023-02-08T00:08:24.225Z,13.27
2023-02-08T00:10:51.473Z,12.53
2023-02-08T00:13:18.997Z,11.90
2023-02-08T00:15:47.217Z,12.07
2023-02-08T00:18:14.839Z,11.63
2023-02-08T00:20:43.064Z,11.43
2023-02-08T00:23:10.713Z,13.87
2023-02-08T00:25:38.876Z,13.77
2023-02-08T00:28:09.341Z,11.87
2023-02-08T00:30:37.711Z,13.07
2023-02-08T00:33:05.473Z,10.97
2023-02-08T00:35:32.576Z,11.15
2023-02-08T00:38:00.058Z,14.00
2023-02-08T00:40:27.611Z,11.75
2023-02-08T00:42:54.696Z,12.37
2023-02-08T00:45:21.797Z,11.77
2023-02-08T00:47:49.023Z,12.63
2023-02-08T00:50:16.306Z,12.43
2023-02-08T00:52:43.340Z,11.68
2023-02-08T00:55:10.505Z,11.37
2023-02-08T00:57:37.607Z,12.75
2023-02-08T01:00:06.059Z,12.37
2023-02-08T01:02:34.006Z,13.37
2023-02-08T01:05:01.099Z,11.73
2023-02-08T01:07:28.250Z,12.60
2023-02-08T01:09:55.537Z,14.52
2023-02-08T01:12:22.697Z,13.27
2023-02-08T01:14:49.767Z,13.83
2023-02-08T01:17:16.951Z,12.23
2023-02-08T01:19:44.042Z,12.87
2023-02-08T01:22:11.137Z,12.80
2023-02-08T01:24:38.252Z,12.93
2023-02-08T01:27:05.282Z,11.07
2023-02-08T01:29:32.343Z,13.45
2023-02-08T01:31:59.432Z,14.80
2023-02-08T01:34:26.509Z,11.73
2023-02-08T01:36:53.557Z,11.63
2023-02-08T01:39:20.734Z,12.37
2023-02-08T01:41:47.894Z,10.27
2023-02-08T01:44:14.940Z,12.55
2023-02-08T01:46:48.840Z,11.60
2023-02-08T01:49:22.602Z,12.80
2023-02-08T01:51:58.617Z,11.57
2023-02-08T01:54:29.042Z,12.63
2023-02-08T01:56:56.284Z,11.13
2023-02-08T01:59:34.409Z,12.07
2023-02-08T02:02:03.086Z,10.07
2023-02-08T02:04:31.064Z,11.13
2023-02-08T02:07:00.458Z,10.30
2023-02-08T02:09:56.176Z,10.93
2023-02-08T02:12:24.246Z,12.13
2023-02-08T02:14:51.645Z,11.17
2023-02-08T02:17:20.113Z,11.43
2023-02-08T02:19:59.848Z,12.00
2023-02-08T02:22:32.792Z,11.73
2023-02-08T02:25:21.490Z,11.50
2023-02-08T02:28:07.131Z,12.30
2023-02-08T02:30:40.430Z,10.90
2023-02-08T02:33:29.251Z,12.30
2023-02-08T02:36:32.793Z,11.27
2023-02-08T02:39:10.627Z,12.70
2023-02-08T02:41:56.188Z,11.75
2023-02-08T02:44:26.564Z,12.17
2023-02-08T02:47:05.992Z,10.97
2023-02-08T02:49:50.565Z,11.73
2023-02-08T02:52:28.587Z,10.50
2023-02-08T02:55:03.189Z,11.83
2023-02-08T02:57:32.957Z,12.70
2023-02-08T03:00:00.666Z,12.33
2023-02-08T03:02:28.395Z,12.02
2023-02-08T03:04:57.560Z,12.13
2023-02-08T03:07:46.212Z,12.27
2023-02-08T03:10:25.337Z,11.20
2023-02-08T03:13:01.342Z,11.60
2023-02-08T03:15:47.501Z,13.00
2023-02-08T03:19:06.139Z,10.57
2023-02-08T03:21:44.245Z,10.37
2023-02-08T03:24:28.074Z,9.87
2023-02-08T03:27:22.283Z,10.57
2023-02-08T03:30:01.648Z,10.30
2023-02-08T03:32:50.862Z,10.20
2023-02-08T03:35:27.758Z,8.97
2023-02-08T03:38:01.952Z,10.27
2023-02-08T03:40:31.585Z,10.50
2023-02-08T03:43:05.246Z,10.03
2023-02-08T03:45:39.785Z,10.53
2023-02-08T03:48:10.356Z,9.43
2023-02-08T03:50:41.037Z,9.57
2023-02-08T03:53:10.471Z,9.30
2023-02-08T03:55:52.167Z,8.70
2023-02-08T03:58:27.103Z,10.17
2023-02-08T04:01:05.509Z,9.93
2023-02-08T04:03:33.913Z,9.27
2023-02-08T04:06:01.096Z,9.90
2023-02-08T04:08:28.398Z,10.23
2023-02-08T04:10:55.475Z,11.60
2023-02-08T04:13:22.605Z,12.80
2023-02-08T04:15:49.803Z,11.10
2023-02-08T04:18:17.045Z,8.93
2023-02-08T04:20:44.124Z,10.15
2023-02-08T04:23:11.416Z,9.97
2023-02-08T04:25:38.606Z,11.07
2023-02-08T04:28:05.872Z,10.80
2023-02-08T04:30:33.106Z,10.17
2023-02-08T04:33:00.299Z,11.53
2023-02-08T04:35:27.444Z,11.13
2023-02-08T04:37:54.639Z,9.63
2023-02-08T04:40:21.917Z,10.20
2023-02-08T04:42:49.070Z,10.93
2023-02-08T04:45:16.435Z,11.50
2023-02-08T04:47:43.502Z,10.40
2023-02-08T04:50:10.714Z,8.90
2023-02-08T04:52:37.859Z,8.87
2023-02-08T04:55:05.230Z,10.77
2023-02-08T04:57:32.339Z,7.33
2023-02-08T05:00:00.406Z,9.70
2023-02-08T05:02:27.740Z,10.13
2023-02-08T05:04:54.812Z,12.93
2023-02-08T05:07:22.025Z,11.23
2023-02-08T05:09:49.098Z,10.77
2023-02-08T05:12:16.201Z,9.53
2023-02-08T05:14:43.401Z,10.67
2023-02-08T05:17:10.584Z,9.23
2023-02-08T05:19:37.827Z,11.30
2023-02-08T05:22:05.002Z,9.87
2023-02-08T05:24:32.136Z,11.00
2023-02-08T05:26:59.264Z,11.85
2023-02-08T05:29:26.468Z,13.00
2023-02-08T05:31:53.634Z,11.03
2023-02-08T05:34:20.683Z,13.00
2023-02-08T05:36:48.919Z,12.87
2023-02-08T05:39:16.095Z,13.77
2023-02-08T05:41:43.245Z,13.10
2023-02-08T05:44:10.415Z,13.77
2023-02-08T05:46:38.458Z,14.55
2023-02-08T05:49:05.937Z,14.17
2023-02-08T05:51:33.319Z,12.53
2023-02-08T05:54:00.435Z,12.03
2023-02-08T05:56:28.111Z,13.75
2023-02-08T05:58:55.475Z,13.00
2023-02-08T06:01:23.213Z,11.23
2023-02-08T06:03:50.716Z,13.98
2023-02-08T06:06:17.929Z,11.33
2023-02-08T06:08:45.105Z,13.70
2023-02-08T06:11:12.388Z,12.60
2023-02-08T06:13:39.671Z,14.97
2023-02-08T06:16:07.463Z,13.38
2023-02-08T06:18:34.647Z,12.90
2023-02-08T06:21:01.785Z,14.83
2023-02-08T06:23:28.895Z,11.70
2023-02-08T06:25:56.030Z,14.10
2023-02-08T06:28:23.420Z,13.93
2023-02-08T06:30:51.395Z,16.23
2023-02-08T06:33:19.532Z,12.83
2023-02-08T06:35:52.543Z,14.73
2023-02-08T06:38:20.370Z,13.77
2023-02-08T06:40:48.709Z,13.40
2023-02-08T06:43:17.023Z,12.03
2023-02-08T06:45:47.515Z,15.25
2023-02-08T06:48:15.168Z,13.17
2023-02-08T06:50:42.765Z,11.95
2023-02-08T06:53:10.026Z,13.60
2023-02-08T06:55:37.151Z,14.53
2023-02-08T06:58:04.241Z,13.23
2023-02-08T07:00:31.538Z,13.90
2023-02-08T07:03:00.957Z,13.32
2023-02-08T07:05:28.335Z,15.02
2023-02-08T07:07:55.404Z,12.77
2023-02-08T07:10:22.529Z,14.57
2023-02-08T07:12:49.583Z,15.07
2023-02-08T07:15:16.669Z,14.38
2023-02-08T07:17:43.785Z,15.43
2023-02-08T07:20:11.730Z,12.65
2023-02-08T07:22:39.934Z,15.88
2023-02-08T07:25:08.338Z,14.07
2023-02-08T07:27:35.652Z,16.42
2023-02-08T07:30:03.040Z,15.07
2023-02-08T07:32:32.612Z,15.38
2023-02-08T07:35:01.588Z,12.45
2023-02-08T07:37:31.903Z,15.40
2023-02-08T07:40:01.146Z,13.10
2023-02-08T07:42:28.439Z,12.98
2023-02-08T07:44:55.556Z,16.05
2023-02-08T07:47:22.695Z,14.88
2023-02-08T07:49:49.790Z,12.18
2023-02-08T07:52:16.830Z,14.05
2023-02-08T07:54:44.032Z,12.70
2023-02-08T07:57:11.214Z,13.68
2023-02-08T07:59:38.266Z,15.80
2023-02-08T08:02:05.443Z,14.18
2023-02-08T08:04:32.704Z,12.23
2023-02-08T08:06:59.772Z,10.63
2023-02-08T08:09:27.059Z,11.93
2023-02-08T08:11:54.207Z,12.80
2023-02-08T08:14:21.310Z,11.25
2023-02-08T08:16:48.474Z,13.35
2023-02-08T08:19:15.563Z,13.68
2023-02-08T08:21:42.668Z,13.90
2023-02-08T08:24:09.992Z,15.77
2023-02-08T08:26:37.127Z,10.98
2023-02-08T08:29:04.251Z,12.68
2023-02-08T08:31:31.392Z,14.02
2023-02-08T08:33:58.536Z,12.02
2023-02-08T08:36:25.663Z,12.52
2023-02-08T08:38:53.110Z,11.52
2023-02-08T08:41:22.495Z,12.20
2023-02-08T08:43:49.736Z,14.15
2023-02-08T08:46:18.023Z,11.90
2023-02-08T08:48:45.893Z,17.25
2023-02-08T08:51:14.285Z,11.98
2023-02-08T08:53:41.476Z,12.30
2023-02-08T08:56:08.819Z,14.48
2023-02-08T08:58:35.867Z,13.18
2023-02-08T09:01:02.979Z,13.73
2023-02-08T09:03:30.711Z,15.05
2023-02-08T09:05:57.989Z,13.20
2023-02-08T09:08:25.008Z,17.75
2023-02-08T09:10:52.154Z,10.90
2023-02-08T09:13:20.188Z,11.40
2023-02-08T09:15:48.784Z,12.57
2023-02-08T09:18:16.170Z,10.52
2023-02-08T09:20:43.734Z,12.07
2023-02-08T09:23:11.435Z,12.10
2023-02-08T09:25:38.846Z,12.52
2023-02-08T09:28:06.113Z,12.50
2023-02-08T09:30:33.657Z,12.52
2023-02-08T09:33:00.853Z,13.00
2023-02-08T09:35:28.061Z,12.73
2023-02-08T09:37:58.167Z,13.50
2023-02-08T09:40:31.554Z,11.10
2023-02-08T09:43:31.768Z,13.32
2023-02-08T09:46:08.496Z,16.27
2023-02-08T09:48:38.167Z,20.10
2023-02-08T09:51:10.754Z,12.18
2023-02-08T09:53:44.731Z,11.32
2023-02-08T09:56:15.855Z,10.82
2023-02-08T09:58:49.955Z,11.95
2023-02-08T10:01:25.181Z,11.63
2023-02-08T10:04:08.096Z,20.65
2023-02-08T10:06:35.632Z,12.48
2023-02-08T10:09:06.664Z,12.80
2023-02-08T10:12:15.304Z,11.25
2023-02-08T10:14:54.667Z,14.18
2023-02-08T10:18:01.957Z,11.82
2023-02-08T10:20:52.535Z,11.75
2023-02-08T10:23:44.412Z,12.23
2023-02-08T10:26:17.970Z,14.82
2023-02-08T10:29:10.872Z,12.05
2023-02-08T10:31:55.863Z,10.77
2023-02-08T10:34:47.812Z,12.00
2023-02-08T10:37:20.697Z,13.23
2023-02-08T10:39:50.888Z,13.38
2023-02-08T10:42:24.444Z,12.15
2023-02-08T10:45:24.584Z,11.20
2023-02-08T10:47:58.550Z,8.55
2023-02-08T10:50:32.422Z,10.63
2023-02-08T10:52:59.930Z,11.90
2023-02-08T10:55:27.588Z,10.23
2023-02-08T10:57:59.949Z,11.40
2023-02-08T11:00:33.782Z,7.78
2023-02-08T11:03:35.968Z,7.80
2023-02-08T11:06:03.400Z,8.75
2023-02-08T11:08:30.525Z,9.10
2023-02-08T11:11:09.143Z,12.05
2023-02-08T11:13:38.448Z,9.57
2023-02-08T11:16:07.641Z,9.35
2023-02-08T11:18:52.948Z,8.52
2023-02-08T11:21:39.119Z,12.25
2023-02-08T11:24:30.020Z,12.15
2023-02-08T11:26:57.114Z,12.70
2023-02-08T11:29:27.182Z,12.90
2023-02-08T11:32:00.223Z,11.13
2023-02-08T11:37:14.994Z,12.93
2023-02-08T11:40:00.819Z,10.55
2023-02-08T11:42:37.008Z,11.52
2023-02-08T11:45:05.452Z,9.73
2023-02-08T11:47:37.923Z,11.32
2023-02-08T11:50:08.560Z,13.32
2023-02-08T11:52:42.786Z,12.40
2023-02-08T11:55:17.464Z,11.35
2023-02-08T11:58:23.509Z,10.45
2023-02-08T12:01:30.479Z,11.27
2023-02-08T12:04:00.186Z,10.75
2023-02-08T12:07:01.530Z,12.07
2023-02-08T12:10:03.759Z,12.25
2023-02-08T12:12:58.214Z,12.70
2023-02-08T12:15:48.143Z,16.58
2023-02-08T12:18:44.981Z,11.65
2023-02-08T12:21:29.770Z,14.98
2023-02-08T12:24:22.681Z,13.10
2023-02-08T12:27:23.253Z,12.98
2023-02-08T12:30:08.740Z,14.45
2023-02-08T12:32:57.978Z,11.82
2023-02-08T12:35:57.617Z,11.10
2023-02-08T12:39:18.291Z,10.73
2023-02-08T12:42:16.508Z,12.60
2023-02-08T12:45:11.177Z,18.17
2023-02-08T12:48:11.965Z,15.02
2023-02-08T12:50:47.932Z,13.48
2023-02-08T12:53:37.792Z,9.82
2023-02-08T12:56:24.242Z,12.90
2023-02-08T12:59:08.240Z,14.38
2023-02-08T13:01:51.676Z,11.77
2023-02-08T13:04:29.932Z,12.70
2023-02-08T13:07:04.316Z,14.60
2023-02-08T13:09:35.639Z,11.63
2023-02-08T13:12:14.564Z,11.93
2023-02-08T13:15:31.215Z,11.02
2023-02-08T13:18:06.313Z,10.55
2023-02-08T13:21:00.181Z,12.98
2023-02-08T13:23:38.448Z,10.10
2023-02-08T13:26:18.057Z,9.38
2023-02-08T13:28:52.362Z,10.07
2023-02-08T13:31:36.217Z,10.73
2023-02-08T13:34:14.300Z,12.02
2023-02-08T13:36:51.562Z,9.73
2023-02-08T13:39:42.188Z,9.02
2023-02-08T13:42:40.883Z,10.07
2023-02-08T13:45:10.842Z,11.63
2023-02-08T13:47:44.799Z,11.57
2023-02-08T13:50:35.013Z,17.65
2023-02-08T13:53:03.602Z,11.98
2023-02-08T13:55:33.944Z,12.75
2023-02-08T13:58:27.459Z,11.13
2023-02-08T14:00:55.008Z,10.80
2023-02-08T14:03:22.079Z,10.70
2023-02-08T14:05:57.974Z,10.15
2023-02-08T14:08:35.301Z,9.88
2023-02-08T14:11:07.912Z,10.07
2023-02-08T14:13:46.947Z,11.18
2023-02-08T14:16:40.505Z,10.65
2023-02-08T14:19:16.822Z,9.68
2023-02-08T14:22:08.627Z,10.82
2023-02-08T14:24:43.947Z,9.85
2023-02-08T14:27:28.870Z,9.55
2023-02-08T14:30:13.495Z,11.05
2023-02-08T14:32:43.252Z,9.75
2023-02-08T14:35:24.151Z,11.02
2023-02-08T14:38:20.343Z,13.27
2023-02-08T14:40:49.642Z,12.48
2023-02-08T14:43:19.833Z,12.73
2023-02-08T14:45:49.876Z,13.25
2023-02-08T14:48:32.039Z,12.60
2023-02-08T14:51:11.352Z,15.38
2023-02-08T14:53:55.831Z,13.13
2023-02-08T14:56:29.785Z,12.43
2023-02-08T14:59:12.376Z,14.57
2023-02-08T15:01:53.952Z,12.65
2023-02-08T15:04:21.857Z,12.15
2023-02-08T15:07:00.194Z,11.95
2023-02-08T15:09:36.139Z,13.40
2023-02-08T15:12:09.575Z,13.35
2023-02-08T15:14:40.073Z,12.20
2023-02-08T15:17:19.306Z,13.93
2023-02-08T15:19:47.046Z,13.55
2023-02-08T15:22:30.176Z,15.43
2023-02-08T15:27:34.533Z,12.15
2023-02-08T15:30:01.771Z,12.25
2023-02-08T15:32:31.605Z,13.27
2023-02-08T15:35:02.419Z,12.93
2023-02-08T15:37:34.405Z,11.45
2023-02-08T15:40:03.235Z,10.25
2023-02-08T15:42:34.112Z,12.57
2023-02-08T15:45:02.998Z,12.73
2023-02-08T15:47:33.002Z,14.65
2023-02-08T15:50:01.194Z,11.68
2023-02-08T15:52:33.321Z,15.18
2023-02-08T15:55:00.446Z,12.68
2023-02-08T15:57:54.981Z,11.77
2023-02-08T16:00:29.085Z,13.25
2023-02-08T16:03:08.662Z,12.20
2023-02-08T16:05:36.673Z,10.25
2023-02-08T16:08:04.869Z,11.77
2023-02-08T16:10:41.588Z,13.63
2023-02-08T16:13:28.018Z,14.02
2023-02-08T16:16:08.475Z,12.38
2023-02-08T16:18:50.141Z,11.45
2023-02-08T16:21:36.027Z,11.10
2023-02-08T16:24:19.212Z,11.40
2023-02-08T16:29:32.602Z,11.43
2023-02-08T16:32:12.945Z,10.07
2023-02-08T16:34:41.022Z,13.07
2023-02-08T16:37:29.686Z,12.98
2023-02-08T16:39:59.645Z,12.02
2023-02-08T16:42:36.957Z,11.07
2023-02-08T16:45:17.278Z,10.88
2023-02-08T16:47:56.901Z,11.20
2023-02-08T16:50:27.770Z,12.02
2023-02-08T16:53:00.033Z,10.55
2023-02-08T16:55:32.590Z,10.70
2023-02-08T16:58:00.881Z,10.77
2023-02-08T17:00:30.776Z,10.10
2023-02-08T17:02:58.285Z,11.85
2023-02-08T17:05:31.282Z,10.10
2023-02-08T17:10:32.655Z,11.45
2023-02-08T17:13:18.660Z,9.38
2023-02-08T17:15:49.077Z,10.27
2023-02-08T17:18:16.591Z,10.80
2023-02-08T17:20:43.823Z,9.00
2023-02-08T17:23:11.894Z,10.77
2023-02-08T17:25:39.332Z,10.27
2023-02-08T17:28:11.730Z,10.30
2023-02-08T17:30:41.892Z,10.80
2023-02-08T17:33:18.061Z,11.32
2023-02-08T17:35:48.023Z,13.20
2023-02-08T17:38:15.663Z,9.35
2023-02-08T17:40:43.450Z,9.10
2023-02-08T17:43:11.847Z,11.07
2023-02-08T17:45:41.665Z,12.45
2023-02-08T17:48:09.105Z,10.20
2023-02-08T17:50:36.384Z,8.98
2023-02-08T17:53:04.182Z,8.52
2023-02-08T17:55:31.722Z,8.85
2023-02-08T17:57:59.001Z,7.85
2023-02-08T18:00:26.561Z,8.77
2023-02-08T18:02:55.578Z,7.95
2023-02-08T18:05:26.797Z,8.23
2023-02-08T18:07:55.805Z,7.20
2023-02-08T18:10:24.559Z,10.52
2023-02-08T18:12:51.912Z,7.78
2023-02-08T18:15:21.720Z,8.15
2023-02-08T18:17:50.624Z,7.43
2023-02-08T18:20:17.984Z,7.65
2023-02-08T18:22:45.676Z,6.47
2023-02-08T18:25:14.619Z,8.00
2023-02-08T18:27:42.116Z,7.15
2023-02-08T18:30:10.663Z,13.75
2023-02-08T18:32:37.883Z,10.63
2023-02-08T18:35:07.423Z,8.68
2023-02-08T18:37:35.499Z,8.25
2023-02-08T18:40:02.719Z,7.32
2023-02-08T18:42:30.516Z,10.15
2023-02-08T18:44:57.637Z,7.03
2023-02-08T18:47:24.861Z,6.80
2023-02-08T18:49:56.393Z,7.95
2023-02-08T18:52:24.125Z,7.22
2023-02-08T18:54:51.553Z,8.15
2023-02-08T18:57:18.771Z,7.97
2023-02-08T18:59:45.920Z,8.73
2023-02-08T19:02:22.125Z,7.97
2023-02-08T19:04:49.582Z,7.40
2023-02-08T19:07:16.695Z,6.65
2023-02-08T19:09:44.284Z,8.07
2023-02-08T19:12:15.573Z,6.80
2023-02-08T19:14:43.698Z,11.77
2023-02-08T19:17:13.070Z,8.18
2023-02-08T19:19:42.281Z,8.55
2023-02-08T19:22:09.904Z,7.95
2023-02-08T19:24:37.236Z,8.70
2023-02-08T19:27:04.354Z,7.20
2023-02-08T19:29:33.464Z,7.63
2023-02-08T19:32:01.055Z,9.13
2023-02-08T19:34:28.286Z,18.98
2023-02-08T19:36:55.760Z,7.78
2023-02-08T19:39:25.997Z,7.50
2023-02-08T19:41:54.311Z,7.03
2023-02-08T19:44:22.010Z,9.30
2023-02-08T19:46:54.926Z,11.10
2023-02-08T19:51:50.389Z,9.70
2023-02-08T19:54:19.109Z,10.77
2023-02-08T19:56:47.374Z,8.40
2023-02-08T19:59:24.177Z,8.00
2023-02-08T20:01:51.684Z,8.45
2023-02-08T20:04:19.031Z,9.95
2023-02-08T20:06:46.714Z,9.52
2023-02-08T20:09:16.832Z,8.27
2023-02-08T20:11:56.328Z,10.73
2023-02-08T20:14:25.688Z,9.55
2023-02-08T20:16:52.960Z,10.05
2023-02-08T20:19:20.327Z,10.15
2023-02-08T20:21:47.531Z,9.00
2023-02-08T20:24:15.325Z,7.55
2023-02-08T20:26:45.286Z,8.13
2023-02-08T20:29:13.578Z,9.85
2023-02-08T20:31:43.142Z,8.05
2023-02-08T20:34:13.965Z,7.72
2023-02-08T20:36:49.567Z,7.45
2023-02-08T20:39:20.978Z,8.88
2023-02-08T20:41:48.508Z,10.00
2023-02-08T20:44:18.068Z,8.68
2023-02-08T20:46:46.691Z,8.82
2023-02-08T20:49:17.780Z,8.85
2023-02-08T20:51:44.883Z,8.73
2023-02-08T20:54:12.047Z,8.73
2023-02-08T20:56:39.781Z,9.48
2023-02-08T20:59:09.303Z,10.15
2023-02-08T21:01:36.967Z,9.43
2023-02-08T21:04:04.670Z,10.38
2023-02-08T21:06:37.690Z,9.60
2023-02-08T21:09:11.581Z,8.00
2023-02-08T21:11:38.855Z,8.93
2023-02-08T21:14:07.078Z,8.88
2023-02-08T21:16:34.461Z,8.10
2023-02-08T21:19:01.639Z,9.00
2023-02-08T21:21:28.904Z,8.02
2023-02-08T21:23:57.969Z,7.78
2023-02-08T21:26:26.068Z,11.85
2023-02-08T21:28:55.648Z,8.32
2023-02-08T21:31:24.117Z,9.27
2023-02-08T21:33:52.345Z,9.32
2023-02-08T21:36:22.097Z,9.32
2023-02-08T21:38:49.563Z,10.85
2023-02-08T21:41:28.218Z,9.90
2023-02-08T21:43:57.517Z,9.95
2023-02-08T21:46:25.523Z,11.02
2023-02-08T21:49:11.526Z,8.68
2023-02-08T21:51:57.688Z,11.75
2023-02-08T21:54:42.663Z,9.27
2023-02-08T21:57:30.641Z,10.35
2023-02-08T21:59:59.655Z,8.73
2023-02-08T22:02:29.244Z,9.57
2023-02-08T22:04:58.442Z,9.73
2023-02-08T22:07:27.054Z,9.50
2023-02-08T22:09:54.969Z,11.05
2023-02-08T22:12:23.260Z,8.70
2023-02-08T22:14:50.893Z,8.23
2023-02-08T22:17:18.043Z,11.23
2023-02-08T22:19:45.441Z,9.70
2023-02-08T22:22:12.872Z,9.38
2023-02-08T22:24:40.014Z,8.57
2023-02-08T22:27:07.117Z,8.93
2023-02-08T22:29:34.259Z,8.43
2023-02-08T22:32:01.660Z,9.30
2023-02-08T22:34:29.358Z,8.57
2023-02-08T22:36:56.489Z,8.13
2023-02-08T22:39:23.659Z,10.60
2023-02-08T22:41:50.846Z,9.60
2023-02-08T22:44:18.067Z,9.27
2023-02-08T22:46:45.256Z,8.07
2023-02-08T22:49:12.581Z,8.32
2023-02-08T22:51:39.751Z,9.10
2023-02-08T22:54:06.963Z,8.02
2023-02-08T22:56:34.069Z,9.85
2023-02-08T22:59:01.156Z,8.73
2023-02-08T23:01:28.297Z,8.48
2023-02-08T23:03:55.397Z,7.60
2023-02-08T23:06:22.513Z,9.80
2023-02-08T23:08:49.687Z,8.27
2023-02-08T23:11:17.261Z,9.20
2023-02-08T23:13:44.364Z,8.27
2023-02-08T23:16:16.376Z,8.93
2023-02-08T23:18:44.447Z,8.57
2023-02-08T23:21:16.794Z,7.85
2023-02-08T23:23:45.214Z,7.57
2023-02-08T23:26:16.597Z,8.15
2023-02-08T23:28:44.703Z,8.93
2023-02-08T23:31:17.782Z,8.10
2023-02-08T23:33:45.011Z,7.68
2023-02-08T23:36:15.262Z,9.73
2023-02-08T23:38:44.636Z,9.30
2023-02-08T23:41:17.414Z,10.57
2023-02-08T23:43:44.560Z,10.00
2023-02-08T23:46:16.407Z,8.73
2023-02-08T23:48:44.326Z,8.13
2023-02-08T23:51:11.431Z,8.73
2023-02-08T23:53:38.802Z,8.25
2023-02-08T23:56:18.186Z,8.75
2023-02-08T23:58:47.059Z,10.68
